sensor_id;sensor_type;location;lat;lon;timestamp;P1;durP1;ratioP1;P2;durP2;ratioP2
12218;SDS011;6172;42.646;23.344;2022-11-20T00:01:33;5.87;;;3.63;;
12218;SDS011;6172;42.646;23.344;2022-11-20T00:04:02;8.70;;;4.87;;
12218;SDS011;6172;42.646;23.344;2022-11-20T00:06:30;7.37;;;4.57;;
12218;SDS011;6172;42.646;23.344;2022-11-20T00:08:58;6.10;;;4.43;;
12218;SDS011;6172;42.646;23.344;2022-11-20T00:11:27;4.03;;;3.43;;
12218;SDS011;6172;42.646;23.344;2022-11-20T00:13:57;6.67;;;4.00;;
12218;SDS011;6172;42.646;23.344;2022-11-20T00:16:27;4.53;;;3.30;;
12218;SDS011;6172;42.646;23.344;2022-11-20T00:18:57;6.17;;;3.93;;
12218;SDS011;6172;42.646;23.344;2022-11-20T00:21:25;2.07;;;1.20;;
12218;SDS011;6172;42.646;23.344;2022-11-20T00:23:53;4.60;;;1.70;;
12218;SDS011;6172;42.646;23.344;2022-11-20T00:26:22;2.30;;;1.00;;
12218;SDS011;6172;42.646;23.344;2022-11-20T00:28:51;2.03;;;0.70;;
12218;SDS011;6172;42.646;23.344;2022-11-20T00:31:19;1.93;;;0.57;;
12218;SDS011;6172;42.646;23.344;2022-11-20T00:33:45;2.23;;;0.40;;
12218;SDS011;6172;42.646;23.344;2022-11-20T00:36:15;1.40;;;0.40;;
12218;SDS011;6172;42.646;23.344;2022-11-20T00:38:43;1.63;;;0.73;;
12218;SDS011;6172;42.646;23.344;2022-11-20T00:41:14;5.07;;;2.00;;
12218;SDS011;6172;42.646;23.344;2022-11-20T00:43:42;1.03;;;0.40;;
12218;SDS011;6172;42.646;23.344;2022-11-20T00:46:10;1.07;;;0.30;;
12218;SDS011;6172;42.646;23.344;2022-11-20T00:48:40;3.37;;;0.50;;
12218;SDS011;6172;42.646;23.344;2022-11-20T00:51:07;2.07;;;0.43;;
12218;SDS011;6172;42.646;23.344;2022-11-20T00:53:36;0.87;;;0.30;;
12218;SDS011;6172;42.646;23.344;2022-11-20T00:56:04;2.30;;;0.37;;
12218;SDS011;6172;42.646;23.344;2022-11-20T00:58:33;0.87;;;0.40;;
12218;SDS011;6172;42.646;23.344;2022-11-20T01:01:01;0.97;;;0.50;;
12218;SDS011;6172;42.646;23.344;2022-11-20T01:03:30;0.60;;;0.40;;
12218;SDS011;6172;42.646;23.344;2022-11-20T01:06:01;1.80;;;0.50;;
12218;SDS011;6172;42.646;23.344;2022-11-20T01:08:29;1.20;;;0.40;;
12218;SDS011;6172;42.646;23.344;2022-11-20T01:10:59;1.03;;;0.20;;
12218;SDS011;6172;42.646;23.344;2022-11-20T01:13:27;1.60;;;0.20;;
12218;SDS011;6172;42.646;23.344;2022-11-20T01:16:04;0.80;;;0.30;;
12218;SDS011;6172;42.646;23.344;2022-11-20T01:18:33;1.00;;;0.20;;
12218;SDS011;6172;42.646;23.344;2022-11-20T01:21:02;1.10;;;0.30;;
12218;SDS011;6172;42.646;23.344;2022-11-20T01:23:31;1.73;;;0.20;;
12218;SDS011;6172;42.646;23.344;2022-11-20T01:26:01;1.40;;;0.30;;
12218;SDS011;6172;42.646;23.344;2022-11-20T01:28:29;0.87;;;0.50;;
12218;SDS011;6172;42.646;23.344;2022-11-20T01:30:56;2.10;;;0.57;;
12218;SDS011;6172;42.646;23.344;2022-11-20T01:33:23;3.23;;;0.47;;
12218;SDS011;6172;42.646;23.344;2022-11-20T01:35:50;1.87;;;0.70;;
12218;SDS011;6172;42.646;23.344;2022-11-20T01:38:18;2.27;;;0.67;;
12218;SDS011;6172;42.646;23.344;2022-11-20T01:40:53;2.07;;;0.70;;
12218;SDS011;6172;42.646;23.344;2022-11-20T01:43:22;1.53;;;0.80;;
12218;SDS011;6172;42.646;23.344;2022-11-20T01:45:58;2.30;;;0.20;;
12218;SDS011;6172;42.646;23.344;2022-11-20T01:48:41;1.53;;;0.40;;
12218;SDS011;6172;42.646;23.344;2022-11-20T01:51:12;0.50;;;0.30;;
12218;SDS011;6172;42.646;23.344;2022-11-20T01:53:45;2.77;;;0.80;;
12218;SDS011;6172;42.646;23.344;2022-11-20T01:56:13;1.73;;;0.60;;
12218;SDS011;6172;42.646;23.344;2022-11-20T01:58:47;4.63;;;1.10;;
12218;SDS011;6172;42.646;23.344;2022-11-20T02:01:18;1.27;;;0.60;;
12218;SDS011;6172;42.646;23.344;2022-11-20T02:03:45;1.40;;;0.30;;
12218;SDS011;6172;42.646;23.344;2022-11-20T02:06:15;0.90;;;0.40;;
12218;SDS011;6172;42.646;23.344;2022-11-20T02:08:45;2.20;;;0.30;;
12218;SDS011;6172;42.646;23.344;2022-11-20T02:11:12;1.43;;;0.50;;
12218;SDS011;6172;42.646;23.344;2022-11-20T02:13:39;2.87;;;0.30;;
12218;SDS011;6172;42.646;23.344;2022-11-20T02:16:11;2.30;;;0.80;;
12218;SDS011;6172;42.646;23.344;2022-11-20T02:18:40;0.87;;;0.40;;
12218;SDS011;6172;42.646;23.344;2022-11-20T02:21:09;1.60;;;0.40;;
12218;SDS011;6172;42.646;23.344;2022-11-20T02:23:58;2.37;;;0.20;;
12218;SDS011;6172;42.646;23.344;2022-11-20T02:26:27;1.77;;;0.30;;
12218;SDS011;6172;42.646;23.344;2022-11-20T02:28:57;1.40;;;0.17;;
12218;SDS011;6172;42.646;23.344;2022-11-20T02:31:26;0.13;;;0.10;;
12218;SDS011;6172;42.646;23.344;2022-11-20T02:33:56;1.00;;;0.20;;
12218;SDS011;6172;42.646;23.344;2022-11-20T02:36:24;1.63;;;0.30;;
12218;SDS011;6172;42.646;23.344;2022-11-20T02:38:53;0.97;;;0.20;;
12218;SDS011;6172;42.646;23.344;2022-11-20T02:41:31;0.83;;;0.10;;
12218;SDS011;6172;42.646;23.344;2022-11-20T02:43:59;1.33;;;0.17;;
12218;SDS011;6172;42.646;23.344;2022-11-20T02:46:26;0.67;;;0.10;;
12218;SDS011;6172;42.646;23.344;2022-11-20T02:48:53;1.00;;;0.20;;
12218;SDS011;6172;42.646;23.344;2022-11-20T02:51:20;2.10;;;0.20;;
12218;SDS011;6172;42.646;23.344;2022-11-20T02:53:47;1.53;;;0.20;;
12218;SDS011;6172;42.646;23.344;2022-11-20T02:56:14;1.47;;;0.20;;
12218;SDS011;6172;42.646;23.344;2022-11-20T02:58:43;0.90;;;0.27;;
12218;SDS011;6172;42.646;23.344;2022-11-20T03:01:10;1.10;;;0.20;;
12218;SDS011;6172;42.646;23.344;2022-11-20T03:03:37;1.37;;;0.17;;
12218;SDS011;6172;42.646;23.344;2022-11-20T03:06:05;0.70;;;0.20;;
12218;SDS011;6172;42.646;23.344;2022-11-20T03:08:32;0.80;;;0.30;;
12218;SDS011;6172;42.646;23.344;2022-11-20T03:11:01;1.53;;;0.33;;
12218;SDS011;6172;42.646;23.344;2022-11-20T03:13:30;0.47;;;0.30;;
12218;SDS011;6172;42.646;23.344;2022-11-20T03:15:58;3.03;;;0.30;;
12218;SDS011;6172;42.646;23.344;2022-11-20T03:18:30;2.80;;;0.37;;
12218;SDS011;6172;42.646;23.344;2022-11-20T03:20:57;1.07;;;0.30;;
12218;SDS011;6172;42.646;23.344;2022-11-20T03:23:25;1.03;;;0.30;;
12218;SDS011;6172;42.646;23.344;2022-11-20T03:25:53;1.30;;;0.20;;
12218;SDS011;6172;42.646;23.344;2022-11-20T03:28:20;1.50;;;0.47;;
12218;SDS011;6172;42.646;23.344;2022-11-20T03:30:48;2.43;;;0.23;;
12218;SDS011;6172;42.646;23.344;2022-11-20T03:33:16;1.10;;;0.20;;
12218;SDS011;6172;42.646;23.344;2022-11-20T03:35:43;0.87;;;0.20;;
12218;SDS011;6172;42.646;23.344;2022-11-20T03:38:10;4.37;;;0.50;;
12218;SDS011;6172;42.646;23.344;2022-11-20T03:40:37;3.23;;;0.20;;
12218;SDS011;6172;42.646;23.344;2022-11-20T03:43:04;2.07;;;0.50;;
12218;SDS011;6172;42.646;23.344;2022-11-20T03:45:32;1.23;;;0.30;;
12218;SDS011;6172;42.646;23.344;2022-11-20T03:48:02;1.33;;;0.20;;
12218;SDS011;6172;42.646;23.344;2022-11-20T03:50:30;2.17;;;0.30;;
12218;SDS011;6172;42.646;23.344;2022-11-20T03:52:57;2.47;;;0.20;;
12218;SDS011;6172;42.646;23.344;2022-11-20T03:55:24;2.17;;;0.20;;
12218;SDS011;6172;42.646;23.344;2022-11-20T03:57:51;0.60;;;0.20;;
12218;SDS011;6172;42.646;23.344;2022-11-20T04:00:18;2.00;;;0.30;;
12218;SDS011;6172;42.646;23.344;2022-11-20T04:02:45;0.50;;;0.20;;
12218;SDS011;6172;42.646;23.344;2022-11-20T04:05:12;0.20;;;0.10;;
12218;SDS011;6172;42.646;23.344;2022-11-20T04:07:40;2.30;;;0.40;;
12218;SDS011;6172;42.646;23.344;2022-11-20T04:10:07;2.90;;;0.33;;
12218;SDS011;6172;42.646;23.344;2022-11-20T04:12:34;1.20;;;0.20;;
12218;SDS011;6172;42.646;23.344;2022-11-20T04:15:02;1.50;;;0.20;;
12218;SDS011;6172;42.646;23.344;2022-11-20T04:17:29;2.80;;;0.20;;
12218;SDS011;6172;42.646;23.344;2022-11-20T04:19:56;1.57;;;0.20;;
12218;SDS011;6172;42.646;23.344;2022-11-20T04:22:23;0.70;;;0.20;;
12218;SDS011;6172;42.646;23.344;2022-11-20T04:24:51;0.93;;;0.23;;
12218;SDS011;6172;42.646;23.344;2022-11-20T04:27:18;2.20;;;0.40;;
12218;SDS011;6172;42.646;23.344;2022-11-20T04:29:46;1.60;;;0.30;;
12218;SDS011;6172;42.646;23.344;2022-11-20T04:32:13;0.40;;;0.13;;
12218;SDS011;6172;42.646;23.344;2022-11-20T04:34:40;0.77;;;0.20;;
12218;SDS011;6172;42.646;23.344;2022-11-20T04:37:07;1.00;;;0.13;;
12218;SDS011;6172;42.646;23.344;2022-11-20T04:39:34;2.03;;;0.20;;
12218;SDS011;6172;42.646;23.344;2022-11-20T04:42:03;1.13;;;0.20;;
12218;SDS011;6172;42.646;23.344;2022-11-20T04:44:47;0.30;;;0.20;;
12218;SDS011;6172;42.646;23.344;2022-11-20T04:47:14;1.70;;;0.20;;
12218;SDS011;6172;42.646;23.344;2022-11-20T04:49:40;0.47;;;0.20;;
12218;SDS011;6172;42.646;23.344;2022-11-20T04:52:07;0.23;;;0.10;;
12218;SDS011;6172;42.646;23.344;2022-11-20T04:54:34;0.83;;;0.20;;
12218;SDS011;6172;42.646;23.344;2022-11-20T04:57:03;0.60;;;0.20;;
12218;SDS011;6172;42.646;23.344;2022-11-20T04:59:29;0.67;;;0.47;;
12218;SDS011;6172;42.646;23.344;2022-11-20T05:01:56;1.03;;;0.20;;
12218;SDS011;6172;42.646;23.344;2022-11-20T05:04:23;0.80;;;0.20;;
12218;SDS011;6172;42.646;23.344;2022-11-20T05:06:51;5.90;;;0.40;;
12218;SDS011;6172;42.646;23.344;2022-11-20T05:09:17;1.23;;;0.20;;
12218;SDS011;6172;42.646;23.344;2022-11-20T05:11:44;1.90;;;0.30;;
12218;SDS011;6172;42.646;23.344;2022-11-20T05:14:13;0.77;;;0.13;;
12218;SDS011;6172;42.646;23.344;2022-11-20T05:16:39;0.50;;;0.40;;
12218;SDS011;6172;42.646;23.344;2022-11-20T05:19:06;3.10;;;0.33;;
12218;SDS011;6172;42.646;23.344;2022-11-20T05:21:33;0.77;;;0.13;;
12218;SDS011;6172;42.646;23.344;2022-11-20T05:24:01;1.07;;;0.17;;
12218;SDS011;6172;42.646;23.344;2022-11-20T05:26:27;2.03;;;0.20;;
12218;SDS011;6172;42.646;23.344;2022-11-20T05:28:54;2.40;;;0.20;;
12218;SDS011;6172;42.646;23.344;2022-11-20T05:31:24;1.37;;;0.20;;
12218;SDS011;6172;42.646;23.344;2022-11-20T05:33:51;2.37;;;0.30;;
12218;SDS011;6172;42.646;23.344;2022-11-20T05:36:18;1.97;;;0.40;;
12218;SDS011;6172;42.646;23.344;2022-11-20T05:38:46;2.27;;;0.30;;
12218;SDS011;6172;42.646;23.344;2022-11-20T05:41:13;1.67;;;0.50;;
12218;SDS011;6172;42.646;23.344;2022-11-20T05:43:42;2.20;;;0.20;;
12218;SDS011;6172;42.646;23.344;2022-11-20T05:46:11;1.27;;;0.40;;
12218;SDS011;6172;42.646;23.344;2022-11-20T05:48:41;2.63;;;0.30;;
12218;SDS011;6172;42.646;23.344;2022-11-20T05:51:11;1.53;;;0.20;;
12218;SDS011;6172;42.646;23.344;2022-11-20T05:53:40;0.93;;;0.13;;
12218;SDS011;6172;42.646;23.344;2022-11-20T05:56:08;2.97;;;0.60;;
12218;SDS011;6172;42.646;23.344;2022-11-20T05:58:38;2.10;;;0.40;;
12218;SDS011;6172;42.646;23.344;2022-11-20T06:01:06;1.43;;;0.30;;
12218;SDS011;6172;42.646;23.344;2022-11-20T06:03:35;1.13;;;0.30;;
12218;SDS011;6172;42.646;23.344;2022-11-20T06:06:05;1.57;;;0.30;;
12218;SDS011;6172;42.646;23.344;2022-11-20T06:08:33;2.00;;;0.20;;
12218;SDS011;6172;42.646;23.344;2022-11-20T06:11:02;1.57;;;0.20;;
12218;SDS011;6172;42.646;23.344;2022-11-20T06:13:31;1.23;;;0.30;;
12218;SDS011;6172;42.646;23.344;2022-11-20T06:15:57;1.90;;;0.20;;
12218;SDS011;6172;42.646;23.344;2022-11-20T06:18:25;1.10;;;0.40;;
12218;SDS011;6172;42.646;23.344;2022-11-20T06:20:58;0.83;;;0.10;;
12218;SDS011;6172;42.646;23.344;2022-11-20T06:23:29;3.50;;;0.27;;
12218;SDS011;6172;42.646;23.344;2022-11-20T06:25:56;2.73;;;0.20;;
12218;SDS011;6172;42.646;23.344;2022-11-20T06:28:27;3.07;;;0.20;;
12218;SDS011;6172;42.646;23.344;2022-11-20T06:30:56;0.87;;;0.40;;
12218;SDS011;6172;42.646;23.344;2022-11-20T06:33:23;1.93;;;0.20;;
12218;SDS011;6172;42.646;23.344;2022-11-20T06:35:50;1.63;;;0.20;;
12218;SDS011;6172;42.646;23.344;2022-11-20T06:38:17;1.30;;;0.30;;
12218;SDS011;6172;42.646;23.344;2022-11-20T06:40:46;1.63;;;0.30;;
12218;SDS011;6172;42.646;23.344;2022-11-20T06:43:13;3.43;;;0.37;;
12218;SDS011;6172;42.646;23.344;2022-11-20T06:45:40;1.63;;;0.20;;
12218;SDS011;6172;42.646;23.344;2022-11-20T06:48:06;1.53;;;0.20;;
12218;SDS011;6172;42.646;23.344;2022-11-20T06:50:34;1.43;;;0.50;;
12218;SDS011;6172;42.646;23.344;2022-11-20T06:53:03;2.70;;;0.40;;
12218;SDS011;6172;42.646;23.344;2022-11-20T06:55:31;4.93;;;0.30;;
12218;SDS011;6172;42.646;23.344;2022-11-20T06:57:59;1.30;;;0.30;;
12218;SDS011;6172;42.646;23.344;2022-11-20T07:00:27;1.20;;;0.37;;
12218;SDS011;6172;42.646;23.344;2022-11-20T07:02:54;1.30;;;0.30;;
12218;SDS011;6172;42.646;23.344;2022-11-20T07:05:21;1.67;;;0.30;;
12218;SDS011;6172;42.646;23.344;2022-11-20T07:07:49;4.07;;;0.30;;
12218;SDS011;6172;42.646;23.344;2022-11-20T07:10:16;1.37;;;0.20;;
12218;SDS011;6172;42.646;23.344;2022-11-20T07:12:48;1.07;;;0.30;;
12218;SDS011;6172;42.646;23.344;2022-11-20T07:15:19;1.23;;;0.30;;
12218;SDS011;6172;42.646;23.344;2022-11-20T07:17:47;0.87;;;0.43;;
12218;SDS011;6172;42.646;23.344;2022-11-20T07:20:14;1.07;;;0.20;;
12218;SDS011;6172;42.646;23.344;2022-11-20T07:22:42;1.20;;;0.30;;
12218;SDS011;6172;42.646;23.344;2022-11-20T07:25:09;1.20;;;0.80;;
12218;SDS011;6172;42.646;23.344;2022-11-20T07:27:36;0.97;;;0.20;;
12218;SDS011;6172;42.646;23.344;2022-11-20T07:30:03;4.73;;;0.50;;
12218;SDS011;6172;42.646;23.344;2022-11-20T07:32:33;1.70;;;0.20;;
12218;SDS011;6172;42.646;23.344;2022-11-20T07:35:00;2.53;;;0.30;;
12218;SDS011;6172;42.646;23.344;2022-11-20T07:37:27;4.80;;;0.40;;
12218;SDS011;6172;42.646;23.344;2022-11-20T07:39:54;1.77;;;0.40;;
12218;SDS011;6172;42.646;23.344;2022-11-20T07:42:21;0.87;;;0.20;;
12218;SDS011;6172;42.646;23.344;2022-11-20T07:44:48;2.23;;;0.27;;
12218;SDS011;6172;42.646;23.344;2022-11-20T07:47:15;2.53;;;0.30;;
12218;SDS011;6172;42.646;23.344;2022-11-20T07:49:43;2.43;;;0.40;;
12218;SDS011;6172;42.646;23.344;2022-11-20T07:52:10;1.20;;;0.50;;
12218;SDS011;6172;42.646;23.344;2022-11-20T07:54:37;1.87;;;0.40;;
12218;SDS011;6172;42.646;23.344;2022-11-20T07:57:04;4.07;;;0.57;;
12218;SDS011;6172;42.646;23.344;2022-11-20T07:59:31;1.57;;;0.40;;
12218;SDS011;6172;42.646;23.344;2022-11-20T08:01:59;1.77;;;0.43;;
12218;SDS011;6172;42.646;23.344;2022-11-20T08:04:25;3.70;;;0.50;;
12218;SDS011;6172;42.646;23.344;2022-11-20T08:06:54;2.13;;;0.20;;
12218;SDS011;6172;42.646;23.344;2022-11-20T08:09:21;2.10;;;0.50;;
12218;SDS011;6172;42.646;23.344;2022-11-20T08:11:47;2.63;;;0.97;;
12218;SDS011;6172;42.646;23.344;2022-11-20T08:14:31;3.23;;;0.80;;
12218;SDS011;6172;42.646;23.344;2022-11-20T08:16:59;2.63;;;0.80;;
12218;SDS011;6172;42.646;23.344;2022-11-20T08:19:27;4.10;;;0.50;;
12218;SDS011;6172;42.646;23.344;2022-11-20T08:21:56;7.07;;;0.90;;
12218;SDS011;6172;42.646;23.344;2022-11-20T08:24:23;4.10;;;0.67;;
12218;SDS011;6172;42.646;23.344;2022-11-20T08:26:51;3.10;;;0.73;;
12218;SDS011;6172;42.646;23.344;2022-11-20T08:29:19;3.87;;;1.13;;
12218;SDS011;6172;42.646;23.344;2022-11-20T08:31:46;4.13;;;0.80;;
12218;SDS011;6172;42.646;23.344;2022-11-20T08:34:12;5.37;;;0.80;;
12218;SDS011;6172;42.646;23.344;2022-11-20T08:36:39;1.60;;;0.60;;
12218;SDS011;6172;42.646;23.344;2022-11-20T08:39:07;3.40;;;0.67;;
12218;SDS011;6172;42.646;23.344;2022-11-20T08:41:37;2.27;;;0.63;;
12218;SDS011;6172;42.646;23.344;2022-11-20T08:44:05;4.65;;;0.80;;
12218;SDS011;6172;42.646;23.344;2022-11-20T08:46:33;4.50;;;1.27;;
12218;SDS011;6172;42.646;23.344;2022-11-20T08:49:02;6.35;;;0.88;;
12218;SDS011;6172;42.646;23.344;2022-11-20T08:51:29;5.05;;;0.70;;
12218;SDS011;6172;42.646;23.344;2022-11-20T08:53:56;4.87;;;0.50;;
12218;SDS011;6172;42.646;23.344;2022-11-20T08:56:25;3.90;;;0.67;;
12218;SDS011;6172;42.646;23.344;2022-11-20T08:58:52;3.73;;;0.70;;
12218;SDS011;6172;42.646;23.344;2022-11-20T09:01:19;2.13;;;0.47;;
12218;SDS011;6172;42.646;23.344;2022-11-20T09:03:48;1.83;;;0.47;;
12218;SDS011;6172;42.646;23.344;2022-11-20T09:06:15;1.80;;;0.60;;
12218;SDS011;6172;42.646;23.344;2022-11-20T09:08:44;3.73;;;1.10;;
12218;SDS011;6172;42.646;23.344;2022-11-20T09:11:11;5.77;;;1.10;;
12218;SDS011;6172;42.646;23.344;2022-11-20T09:13:39;2.20;;;1.23;;
12218;SDS011;6172;42.646;23.344;2022-11-20T09:16:08;3.47;;;1.13;;
12218;SDS011;6172;42.646;23.344;2022-11-20T09:18:35;1.50;;;1.10;;
12218;SDS011;6172;42.646;23.344;2022-11-20T09:21:03;2.97;;;1.57;;
12218;SDS011;6172;42.646;23.344;2022-11-20T09:23:32;2.20;;;1.17;;
12218;SDS011;6172;42.646;23.344;2022-11-20T09:26:04;1.87;;;1.30;;
12218;SDS011;6172;42.646;23.344;2022-11-20T09:28:31;1.63;;;0.60;;
12218;SDS011;6172;42.646;23.344;2022-11-20T09:31:00;1.57;;;0.60;;
12218;SDS011;6172;42.646;23.344;2022-11-20T09:33:31;1.67;;;0.40;;
12218;SDS011;6172;42.646;23.344;2022-11-20T09:35:58;1.73;;;0.30;;
12218;SDS011;6172;42.646;23.344;2022-11-20T09:38:25;2.20;;;0.30;;
12218;SDS011;6172;42.646;23.344;2022-11-20T09:40:54;1.80;;;0.40;;
12218;SDS011;6172;42.646;23.344;2022-11-20T09:43:26;1.80;;;0.73;;
12218;SDS011;6172;42.646;23.344;2022-11-20T09:46:07;1.40;;;0.60;;
12218;SDS011;6172;42.646;23.344;2022-11-20T09:48:47;1.33;;;0.30;;
12218;SDS011;6172;42.646;23.344;2022-11-20T09:51:24;1.07;;;0.40;;
12218;SDS011;6172;42.646;23.344;2022-11-20T09:54:03;0.90;;;0.60;;
12218;SDS011;6172;42.646;23.344;2022-11-20T09:56:42;1.50;;;0.80;;
12218;SDS011;6172;42.646;23.344;2022-11-20T09:59:15;3.50;;;1.00;;
12218;SDS011;6172;42.646;23.344;2022-11-20T10:01:53;2.10;;;1.10;;
12218;SDS011;6172;42.646;23.344;2022-11-20T10:04:21;1.73;;;0.90;;
12218;SDS011;6172;42.646;23.344;2022-11-20T10:06:50;4.33;;;1.43;;
12218;SDS011;6172;42.646;23.344;2022-11-20T10:09:24;2.57;;;1.20;;
12218;SDS011;6172;42.646;23.344;2022-11-20T10:11:58;4.23;;;1.13;;
12218;SDS011;6172;42.646;23.344;2022-11-20T10:14:38;3.50;;;1.43;;
12218;SDS011;6172;42.646;23.344;2022-11-20T10:17:16;4.57;;;1.40;;
12218;SDS011;6172;42.646;23.344;2022-11-20T10:20:00;2.30;;;0.83;;
12218;SDS011;6172;42.646;23.344;2022-11-20T10:22:44;1.00;;;0.80;;
12218;SDS011;6172;42.646;23.344;2022-11-20T10:25:20;1.70;;;0.90;;
12218;SDS011;6172;42.646;23.344;2022-11-20T10:27:56;2.43;;;1.50;;
12218;SDS011;6172;42.646;23.344;2022-11-20T10:30:36;3.13;;;1.77;;
12218;SDS011;6172;42.646;23.344;2022-11-20T10:33:10;2.90;;;2.17;;
12218;SDS011;6172;42.646;23.344;2022-11-20T10:35:43;3.63;;;1.60;;
12218;SDS011;6172;42.646;23.344;2022-11-20T10:38:16;3.70;;;1.80;;
12218;SDS011;6172;42.646;23.344;2022-11-20T10:40:48;4.40;;;1.70;;
12218;SDS011;6172;42.646;23.344;2022-11-20T10:43:19;5.00;;;2.27;;
12218;SDS011;6172;42.646;23.344;2022-11-20T10:45:53;16.70;;;8.60;;
12218;SDS011;6172;42.646;23.344;2022-11-20T10:48:27;14.67;;;7.57;;
12218;SDS011;6172;42.646;23.344;2022-11-20T10:50:59;12.77;;;4.97;;
12218;SDS011;6172;42.646;23.344;2022-11-20T10:53:41;8.00;;;3.63;;
12218;SDS011;6172;42.646;23.344;2022-11-20T10:56:19;6.50;;;2.97;;
12218;SDS011;6172;42.646;23.344;2022-11-20T10:58:58;7.03;;;2.13;;
12218;SDS011;6172;42.646;23.344;2022-11-20T11:01:31;3.47;;;2.00;;
12218;SDS011;6172;42.646;23.344;2022-11-20T11:04:20;4.23;;;1.63;;
12218;SDS011;6172;42.646;23.344;2022-11-20T11:07:01;4.60;;;2.00;;
12218;SDS011;6172;42.646;23.344;2022-11-20T11:09:35;6.97;;;3.10;;
12218;SDS011;6172;42.646;23.344;2022-11-20T11:12:07;6.30;;;2.77;;
12218;SDS011;6172;42.646;23.344;2022-11-20T11:14:41;7.20;;;2.80;;
12218;SDS011;6172;42.646;23.344;2022-11-20T11:17:18;6.27;;;2.73;;
12218;SDS011;6172;42.646;23.344;2022-11-20T11:19:58;5.37;;;2.50;;
12218;SDS011;6172;42.646;23.344;2022-11-20T11:22:31;2.77;;;0.30;;
12218;SDS011;6172;42.646;23.344;2022-11-20T11:24:58;0.53;;;0.30;;
12218;SDS011;6172;42.646;23.344;2022-11-20T11:27:26;2.07;;;0.20;;
12218;SDS011;6172;42.646;23.344;2022-11-20T11:30:01;3.13;;;0.23;;
12218;SDS011;6172;42.646;23.344;2022-11-20T11:32:37;0.37;;;0.20;;
12218;SDS011;6172;42.646;23.344;2022-11-20T11:35:24;0.30;;;0.10;;
12218;SDS011;6172;42.646;23.344;2022-11-20T11:37:52;0.13;;;0.10;;
12218;SDS011;6172;42.646;23.344;2022-11-20T11:40:22;0.30;;;0.10;;
12218;SDS011;6172;42.646;23.344;2022-11-20T11:43:02;4.40;;;0.13;;
12218;SDS011;6172;42.646;23.344;2022-11-20T11:45:52;1.90;;;0.10;;
12218;SDS011;6172;42.646;23.344;2022-11-20T11:48:19;0.30;;;0.10;;
12218;SDS011;6172;42.646;23.344;2022-11-20T11:50:49;1.13;;;0.10;;
12218;SDS011;6172;42.646;23.344;2022-11-20T11:53:18;3.03;;;0.23;;
12218;SDS011;6172;42.646;23.344;2022-11-20T11:55:49;1.77;;;0.40;;
12218;SDS011;6172;42.646;23.344;2022-11-20T11:58:30;2.90;;;0.37;;
12218;SDS011;6172;42.646;23.344;2022-11-20T12:01:12;2.03;;;0.30;;
12218;SDS011;6172;42.646;23.344;2022-11-20T12:03:53;2.10;;;0.33;;
12218;SDS011;6172;42.646;23.344;2022-11-20T12:06:37;2.83;;;0.27;;
12218;SDS011;6172;42.646;23.344;2022-11-20T12:09:10;1.23;;;0.30;;
12218;SDS011;6172;42.646;23.344;2022-11-20T12:11:39;1.00;;;0.20;;
12218;SDS011;6172;42.646;23.344;2022-11-20T12:14:16;0.77;;;0.10;;
12218;SDS011;6172;42.646;23.344;2022-11-20T12:16:49;1.17;;;0.20;;
12218;SDS011;6172;42.646;23.344;2022-11-20T12:19:18;1.93;;;0.20;;
12218;SDS011;6172;42.646;23.344;2022-11-20T12:21:51;2.93;;;0.20;;
12218;SDS011;6172;42.646;23.344;2022-11-20T12:24:32;0.40;;;0.10;;
12218;SDS011;6172;42.646;23.344;2022-11-20T12:27:14;1.40;;;0.20;;
12218;SDS011;6172;42.646;23.344;2022-11-20T12:29:57;1.03;;;0.20;;
12218;SDS011;6172;42.646;23.344;2022-11-20T12:32:49;0.17;;;0.10;;
12218;SDS011;6172;42.646;23.344;2022-11-20T12:35:43;1.07;;;0.20;;
12218;SDS011;6172;42.646;23.344;2022-11-20T12:41:26;1.20;;;0.20;;
12218;SDS011;6172;42.646;23.344;2022-11-20T12:44:26;1.90;;;0.10;;
12218;SDS011;6172;42.646;23.344;2022-11-20T12:47:28;0.93;;;0.13;;
12218;SDS011;6172;42.646;23.344;2022-11-20T12:50:06;1.03;;;0.20;;
12218;SDS011;6172;42.646;23.344;2022-11-20T12:52:44;2.20;;;0.23;;
12218;SDS011;6172;42.646;23.344;2022-11-20T12:55:28;3.63;;;0.53;;
12218;SDS011;6172;42.646;23.344;2022-11-20T12:58:04;1.93;;;0.40;;
12218;SDS011;6172;42.646;23.344;2022-11-20T13:00:40;3.33;;;0.80;;
12218;SDS011;6172;42.646;23.344;2022-11-20T13:03:29;2.47;;;0.97;;
12218;SDS011;6172;42.646;23.344;2022-11-20T13:06:05;1.30;;;0.40;;
12218;SDS011;6172;42.646;23.344;2022-11-20T13:08:38;2.97;;;0.80;;
12218;SDS011;6172;42.646;23.344;2022-11-20T13:11:12;3.23;;;1.70;;
12218;SDS011;6172;42.646;23.344;2022-11-20T13:13:59;4.83;;;1.10;;
12218;SDS011;6172;42.646;23.344;2022-11-20T13:16:41;3.03;;;1.40;;
12218;SDS011;6172;42.646;23.344;2022-11-20T13:19:15;3.30;;;0.80;;
12218;SDS011;6172;42.646;23.344;2022-11-20T13:21:44;3.47;;;0.87;;
12218;SDS011;6172;42.646;23.344;2022-11-20T13:24:21;2.47;;;0.60;;
12218;SDS011;6172;42.646;23.344;2022-11-20T13:27:03;3.93;;;0.70;;
12218;SDS011;6172;42.646;23.344;2022-11-20T13:29:31;1.97;;;0.90;;
12218;SDS011;6172;42.646;23.344;2022-11-20T13:32:03;3.37;;;0.90;;
12218;SDS011;6172;42.646;23.344;2022-11-20T13:34:34;4.93;;;1.07;;
12218;SDS011;6172;42.646;23.344;2022-11-20T13:37:01;2.30;;;0.97;;
12218;SDS011;6172;42.646;23.344;2022-11-20T13:39:30;3.53;;;1.00;;
12218;SDS011;6172;42.646;23.344;2022-11-20T13:41:59;3.27;;;1.33;;
12218;SDS011;6172;42.646;23.344;2022-11-20T13:44:31;2.83;;;0.93;;
12218;SDS011;6172;42.646;23.344;2022-11-20T13:47:03;3.23;;;1.00;;
12218;SDS011;6172;42.646;23.344;2022-11-20T13:49:46;4.13;;;0.90;;
12218;SDS011;6172;42.646;23.344;2022-11-20T13:52:22;3.27;;;0.80;;
12218;SDS011;6172;42.646;23.344;2022-11-20T13:55:02;3.40;;;0.87;;
12218;SDS011;6172;42.646;23.344;2022-11-20T13:57:40;2.30;;;1.00;;
12218;SDS011;6172;42.646;23.344;2022-11-20T14:00:24;3.97;;;1.80;;
12218;SDS011;6172;42.646;23.344;2022-11-20T14:02:59;8.87;;;3.00;;
12218;SDS011;6172;42.646;23.344;2022-11-20T14:05:38;4.53;;;2.77;;
12218;SDS011;6172;42.646;23.344;2022-11-20T14:08:17;9.93;;;2.93;;
12218;SDS011;6172;42.646;23.344;2022-11-20T14:11:01;7.90;;;2.87;;
12218;SDS011;6172;42.646;23.344;2022-11-20T14:13:29;5.43;;;2.70;;
12218;SDS011;6172;42.646;23.344;2022-11-20T14:16:00;5.23;;;2.37;;
12218;SDS011;6172;42.646;23.344;2022-11-20T14:18:27;6.93;;;2.20;;
12218;SDS011;6172;42.646;23.344;2022-11-20T14:20:54;4.73;;;2.57;;
12218;SDS011;6172;42.646;23.344;2022-11-20T14:23:25;2.97;;;1.80;;
12218;SDS011;6172;42.646;23.344;2022-11-20T14:25:55;4.37;;;1.53;;
12218;SDS011;6172;42.646;23.344;2022-11-20T14:28:24;2.67;;;1.63;;
12218;SDS011;6172;42.646;23.344;2022-11-20T14:30:53;4.30;;;1.90;;
12218;SDS011;6172;42.646;23.344;2022-11-20T14:33:23;4.80;;;2.10;;
12218;SDS011;6172;42.646;23.344;2022-11-20T14:35:53;6.03;;;1.97;;
12218;SDS011;6172;42.646;23.344;2022-11-20T14:38:24;4.57;;;2.00;;
12218;SDS011;6172;42.646;23.344;2022-11-20T14:40:53;5.37;;;1.67;;
12218;SDS011;6172;42.646;23.344;2022-11-20T14:43:21;5.03;;;1.80;;
12218;SDS011;6172;42.646;23.344;2022-11-20T14:45:55;4.53;;;1.73;;
12218;SDS011;6172;42.646;23.344;2022-11-20T14:48:28;5.43;;;2.13;;
12218;SDS011;6172;42.646;23.344;2022-11-20T14:51:01;3.87;;;2.37;;
12218;SDS011;6172;42.646;23.344;2022-11-20T14:53:28;6.23;;;2.60;;
12218;SDS011;6172;42.646;23.344;2022-11-20T14:55:58;4.97;;;2.13;;
12218;SDS011;6172;42.646;23.344;2022-11-20T14:58:27;4.43;;;2.07;;
12218;SDS011;6172;42.646;23.344;2022-11-20T15:00:57;5.60;;;2.60;;
12218;SDS011;6172;42.646;23.344;2022-11-20T15:03:32;3.33;;;1.77;;
12218;SDS011;6172;42.646;23.344;2022-11-20T15:06:00;4.33;;;2.00;;
12218;SDS011;6172;42.646;23.344;2022-11-20T15:08:29;3.33;;;2.17;;
12218;SDS011;6172;42.646;23.344;2022-11-20T15:10:56;3.27;;;1.40;;
12218;SDS011;6172;42.646;23.344;2022-11-20T15:13:26;2.00;;;1.53;;